Time;durP1;ratioP1;P1;durP2;ratioP2;P2;SDS_P1;SDS_P2;PMS_P1;PMS_P2;Temp;Humidity;BMP_temperature;BMP_pressure;BME280_temperature;BME280_humidity;BME280_pressure;Samples;Min_cycle;Max_cycle;Signal;HPM_P1;HPM_P2
2021/05/03 00:02:15;;;;;;;17.70;16.53;;;0.80;99.90;;;;;;4796315;29;20486;-74
2021/05/03 00:04:42;;;;;;;17.63;16.43;;;0.80;99.90;;;;;;4791881;29;20873;-77
2021/05/03 00:07:10;;;;;;;17.47;16.30;;;0.90;99.90;;;;;;4799774;29;20479;-76
2021/05/03 00:09:36;;;;;;;18.27;17.10;;;0.90;99.90;;;;;;4792350;29;20470;-75
2021/05/03 00:12:05;;;;;;;18.97;17.57;;;0.90;99.90;;;;;;4794906;29;20472;-73
2021/05/03 00:14:32;;;;;;;17.13;16.03;;;0.90;99.90;;;;;;4792080;29;20478;-77
2021/05/03 00:16:59;;;;;;;17.87;16.77;;;0.80;99.90;;;;;;4797110;29;20543;-74
2021/05/03 00:19:26;;;;;;;18.10;16.90;;;0.70;99.90;;;;;;4795366;29;20468;-76
2021/05/03 00:21:52;;;;;;;19.97;18.67;;;0.60;99.90;;;;;;4793123;29;20473;-79
2021/05/03 00:24:20;;;;;;;20.60;18.97;;;0.70;99.90;;;;;;4796267;29;20474;-76
2021/05/03 00:26:46;;;;;;;19.97;18.60;;;0.90;99.90;;;;;;4789975;29;20854;-79
2021/05/03 00:29:13;;;;;;;18.90;17.60;;;1.00;99.90;;;;;;4793136;29;20480;-75
2021/05/03 00:31:40;;;;;;;19.97;18.37;;;1.10;99.90;;;;;;4800837;29;20518;-76
2021/05/03 00:34:06;;;;;;;20.47;19.00;;;1.20;99.90;;;;;;4796001;29;20482;-78
2021/05/03 00:36:33;;;;;;;20.87;19.30;;;1.30;99.90;;;;;;4790090;29;20509;-74
2021/05/03 00:39:00;;;;;;;21.00;19.20;;;1.30;99.90;;;;;;4789888;29;21025;-75
2021/05/03 00:41:26;;;;;;;21.20;19.70;;;1.20;99.90;;;;;;4797957;29;20484;-75
2021/05/03 00:43:53;;;;;;;19.67;18.20;;;1.20;99.90;;;;;;4795438;29;20479;-76
2021/05/03 00:46:20;;;;;;;19.60;18.10;;;1.20;99.90;;;;;;4807429;29;20891;-77
2021/05/03 00:48:48;;;;;;;21.53;19.63;;;1.20;99.90;;;;;;4791920;29;20501;-76
2021/05/03 00:51:14;;;;;;;22.13;20.10;;;1.20;99.90;;;;;;4793870;29;20478;-76
2021/05/03 00:53:41;;;;;;;22.57;20.70;;;1.40;99.90;;;;;;4792734;29;20481;-77
2021/05/03 00:56:08;;;;;;;23.50;21.17;;;1.50;99.90;;;;;;4797561;29;21196;-75
2021/05/03 00:58:34;;;;;;;21.33;19.53;;;1.60;99.90;;;;;;4797779;29;20485;-74
2021/05/03 01:01:01;;;;;;;22.03;20.13;;;1.60;99.90;;;;;;4795004;29;20488;-75
2021/05/03 01:03:27;;;;;;;20.93;19.30;;;1.70;99.90;;;;;;4791517;29;20475;-78
2021/05/03 01:05:55;;;;;;;22.20;20.30;;;1.70;99.90;;;;;;4795957;29;20538;-77
2021/05/03 01:08:21;;;;;;;21.90;19.97;;;1.80;99.90;;;;;;4790623;29;20476;-74
2021/05/03 01:10:47;;;;;;;22.07;20.47;;;1.90;99.90;;;;;;4798806;29;20479;-75
2021/05/03 01:13:14;;;;;;;21.60;19.80;;;2.00;99.90;;;;;;4797086;29;20477;-76
2021/05/03 01:15:40;;;;;;;20.80;19.30;;;2.00;99.90;;;;;;4790972;29;20502;-72
2021/05/03 01:18:07;;;;;;;21.10;19.30;;;2.10;99.90;;;;;;4789523;29;20503;-78
2021/05/03 01:20:36;;;;;;;22.40;20.80;;;2.10;99.90;;;;;;4791014;29;20482;-76
2021/05/03 01:23:05;;;;;;;21.27;19.67;;;2.10;99.90;;;;;;4796115;29;20763;-75
2021/05/03 01:25:35;;;;;;;22.83;20.57;;;2.10;99.90;;;;;;4792246;29;20524;-75
2021/05/03 01:28:04;;;;;;;22.33;20.30;;;2.10;99.90;;;;;;4793167;29;20474;-75
2021/05/03 01:30:33;;;;;;;22.43;20.70;;;2.10;99.90;;;;;;4794574;29;20486;-78
2021/05/03 01:33:00;;;;;;;21.57;19.53;;;2.10;99.90;;;;;;4795931;29;20476;-75
2021/05/03 01:35:27;;;;;;;22.30;20.30;;;2.00;99.90;;;;;;4795884;29;20821;-77
2021/05/03 01:37:55;;;;;;;20.97;19.37;;;2.00;99.90;;;;;;4791977;29;21014;-79
2021/05/03 01:40:24;;;;;;;21.63;19.83;;;2.00;99.90;;;;;;4794309;29;20477;-73
2021/05/03 01:42:50;;;;;;;21.00;19.50;;;2.00;99.90;;;;;;4792236;29;20553;-76
2021/05/03 01:45:22;;;;;;;30.27;19.93;;;1.90;99.90;;;;;;4797374;29;20467;-77
2021/05/03 01:47:50;;;;;;;22.00;20.40;;;1.80;99.90;;;;;;4794548;29;20473;-79
2021/05/03 01:50:19;;;;;;;21.83;20.03;;;1.80;99.90;;;;;;4791891;29;20568;-76
2021/05/03 01:52:46;;;;;;;20.67;19.10;;;1.70;99.90;;;;;;4794674;29;20479;-74
2021/05/03 01:55:14;;;;;;;20.30;18.60;;;1.70;99.90;;;;;;4797040;29;20772;-74
2021/05/03 01:57:42;;;;;;;20.23;18.60;;;1.70;99.90;;;;;;4792805;29;20506;-76
2021/05/03 02:00:10;;;;;;;20.20;18.70;;;1.70;99.90;;;;;;4789829;29;20474;-76
2021/05/03 02:02:37;;;;;;;20.00;18.70;;;1.60;99.90;;;;;;4791435;29;20666;-74
2021/05/03 02:05:04;;;;;;;19.87;18.40;;;1.60;99.90;;;;;;4792779;29;20525;-73
2021/05/03 02:07:30;;;;;;;20.33;18.57;;;1.60;99.90;;;;;;4798995;29;20564;-78
2021/05/03 02:09:57;;;;;;;20.23;18.73;;;1.60;99.90;;;;;;4797771;29;20474;-73
2021/05/03 02:12:23;;;;;;;20.80;19.40;;;1.60;99.90;;;;;;4791214;29;20479;-76
2021/05/03 02:14:50;;;;;;;19.80;18.40;;;1.60;99.90;;;;;;4794932;29;20876;-74
2021/05/03 02:17:16;;;;;;;19.37;17.97;;;1.60;99.90;;;;;;4784270;29;20504;-74
2021/05/03 02:19:43;;;;;;;21.13;19.50;;;1.50;99.90;;;;;;4788003;29;20474;-76
2021/05/03 02:22:09;;;;;;;21.10;19.20;;;1.50;99.90;;;;;;4795826;29;20481;-76
2021/05/03 02:24:35;;;;;;;21.13;19.63;;;1.50;99.90;;;;;;4792036;29;20489;-76
2021/05/03 02:27:02;;;;;;;20.73;19.13;;;1.30;99.90;;;;;;4795127;29;20470;-76
2021/05/03 02:29:28;;;;;;;20.30;18.80;;;1.20;99.90;;;;;;4788168;29;20985;-79
2021/05/03 02:31:56;;;;;;;20.77;19.23;;;1.10;99.90;;;;;;4795442;29;20483;-76
2021/05/03 02:34:22;;;;;;;21.03;19.43;;;0.90;99.90;;;;;;4794517;29;20828;-74
2021/05/03 02:36:51;;;;;;;22.93;20.73;;;0.90;99.90;;;;;;4792715;29;20567;-77
2021/05/03 02:39:17;;;;;;;21.20;19.60;;;1.00;99.90;;;;;;4788976;29;20574;-75
2021/05/03 02:41:45;;;;;;;22.63;20.73;;;0.80;99.90;;;;;;4793802;29;20500;-75
2021/05/03 02:44:11;;;;;;;21.07;19.50;;;0.60;99.90;;;;;;4795336;29;20511;-76
2021/05/03 02:46:38;;;;;;;20.70;19.13;;;0.50;99.90;;;;;;4791415;29;20482;-77
2021/05/03 02:49:06;;;;;;;20.43;19.03;;;0.40;99.90;;;;;;4794902;29;20473;-77
2021/05/03 02:51:33;;;;;;;19.67;18.37;;;0.30;99.90;;;;;;4794836;29;20826;-76
2021/05/03 02:54:00;;;;;;;21.37;19.57;;;0.20;99.90;;;;;;4793736;29;20477;-77
2021/05/03 02:56:26;;;;;;;20.33;18.53;;;0.20;99.90;;;;;;4798237;29;21052;-76
2021/05/03 02:58:52;;;;;;;21.60;19.90;;;0.20;99.90;;;;;;4801608;29;20480;-77
2021/05/03 03:01:19;;;;;;;21.67;19.83;;;0.30;99.90;;;;;;4796657;29;20496;-73
2021/05/03 03:03:45;;;;;;;20.83;19.00;;;0.20;99.90;;;;;;4797156;29;20466;-73
2021/05/03 03:06:13;;;;;;;20.83;19.43;;;0.10;99.90;;;;;;4795643;29;20490;-77
2021/05/03 03:08:40;;;;;;;22.47;20.07;;;0.00;99.90;;;;;;4798714;29;20945;-77
2021/05/03 03:11:06;;;;;;;21.23;19.20;;;0.10;99.90;;;;;;4795612;29;20467;-77
2021/05/03 03:13:33;;;;;;;21.47;19.77;;;0.30;99.90;;;;;;4795754;29;20498;-75
2021/05/03 03:16:00;;;;;;;20.80;19.30;;;0.40;99.90;;;;;;4801234;29;20520;-77
2021/05/03 03:18:27;;;;;;;20.40;18.97;;;0.50;99.90;;;;;;4792907;29;20471;-75
2021/05/03 03:20:54;;;;;;;20.33;18.77;;;0.50;99.90;;;;;;4795315;29;20517;-74
2021/05/03 03:23:21;;;;;;;21.13;19.63;;;0.30;99.90;;;;;;4794643;29;20475;-79
2021/05/03 03:25:48;;;;;;;20.20;18.70;;;0.20;99.90;;;;;;4796857;29;20472;-76
2021/05/03 03:28:14;;;;;;;19.60;18.17;;;0.10;99.90;;;;;;4792897;29;20504;-76
2021/05/03 03:30:41;;;;;;;20.90;19.40;;;0.00;99.90;;;;;;4796124;29;20486;-74
2021/05/03 03:33:08;;;;;;;20.50;19.00;;;0.00;99.90;;;;;;4790495;29;21023;-78
2021/05/03 03:35:35;;;;;;;22.60;20.90;;;0.00;99.90;;;;;;4798160;29;20475;-76
2021/05/03 03:38:02;;;;;;;30.07;25.00;;;0.00;99.90;;;;;;4796626;29;20857;-75
2021/05/03 03:40:30;;;;;;;24.80;22.33;;;0.00;99.90;;;;;;4793666;29;20478;-77
2021/05/03 03:42:56;;;;;;;24.57;22.33;;;0.00;99.90;;;;;;4793638;29;20996;-73
2021/05/03 03:45:23;;;;;;;24.70;22.13;;;0.00;99.90;;;;;;4798927;29;20478;-76
2021/05/03 03:47:49;;;;;;;24.90;22.60;;;0.10;99.90;;;;;;4800602;29;20474;-77
2021/05/03 03:50:16;;;;;;;24.57;22.10;;;0.20;99.90;;;;;;4791315;29;20477;-76
2021/05/03 03:52:42;;;;;;;24.73;22.40;;;0.20;99.90;;;;;;4792561;29;20853;-74
2021/05/03 03:55:10;;;;;;;24.07;21.87;;;0.30;99.90;;;;;;4796348;29;20475;-76
2021/05/03 03:57:38;;;;;;;24.10;21.80;;;0.40;99.90;;;;;;4794998;29;20503;-75
2021/05/03 04:00:06;;;;;;;24.23;22.13;;;0.50;99.90;;;;;;4797675;29;20588;-73
2021/05/03 04:02:34;;;;;;;24.33;22.00;;;0.50;99.90;;;;;;4790682;29;20471;-76
2021/05/03 04:05:12;;;;;;;24.60;22.57;;;0.50;99.90;;;;;;4797169;29;20492;-77
2021/05/03 04:07:42;;;;;;;26.90;24.27;;;0.50;99.90;;;;;;4793041;29;20478;-76
2021/05/03 04:10:20;;;;;;;26.63;24.13;;;0.60;99.90;;;;;;4794178;29;20471;-76
2021/05/03 04:13:09;;;;;;;26.73;24.37;;;0.60;99.90;;;;;;4796366;29;20534;-75
2021/05/03 04:21:09;;;;;;;25.60;23.47;;;0.90;99.90;;;;;;4761431;29;20500;-75
2021/05/03 04:23:52;;;;;;;24.57;22.60;;;1.00;99.90;;;;;;4790680;29;20475;-75
2021/05/03 04:26:21;;;;;;;24.33;22.03;;;1.10;99.90;;;;;;4795059;29;20470;-73
2021/05/03 04:28:49;;;;;;;23.60;21.60;;;1.30;99.90;;;;;;4795293;29;20494;-73
2021/05/03 04:31:16;;;;;;;24.83;22.87;;;1.40;99.90;;;;;;4796270;29;20482;-79
2021/05/03 04:33:43;;;;;;;25.43;23.20;;;1.50;99.90;;;;;;4796109;29;20482;-77
2021/05/03 04:36:09;;;;;;;26.63;24.03;;;1.70;99.90;;;;;;4792344;29;20983;-79
2021/05/03 04:38:36;;;;;;;24.67;22.47;;;1.80;99.90;;;;;;4795041;29;20861;-75
2021/05/03 04:41:02;;;;;;;26.20;23.80;;;1.80;99.90;;;;;;4797754;29;20559;-78
2021/05/03 04:43:29;;;;;;;27.27;24.97;;;1.90;99.90;;;;;;4795514;29;20481;-75
2021/05/03 04:45:56;;;;;;;28.57;25.73;;;2.10;99.90;;;;;;4792073;29;21062;-75
2021/05/03 04:48:23;;;;;;;27.80;25.43;;;2.30;99.90;;;;;;4793431;29;20896;-77
2021/05/03 04:50:49;;;;;;;27.50;24.90;;;2.40;99.90;;;;;;4793303;29;20475;-76
2021/05/03 04:53:15;;;;;;;27.77;25.00;;;2.40;99.90;;;;;;4792504;29;20471;-76
2021/05/03 04:55:42;;;;;;;30.67;27.50;;;2.50;99.90;;;;;;4796831;29;20470;-76
2021/05/03 04:58:08;;;;;;;27.93;25.53;;;2.70;99.90;;;;;;4795956;29;20511;-77
2021/05/03 05:00:37;;;;;;;28.23;25.50;;;2.70;99.90;;;;;;4798729;29;20475;-75
2021/05/03 05:03:04;;;;;;;29.37;26.57;;;2.80;99.90;;;;;;4793205;29;20558;-75
2021/05/03 05:05:30;;;;;;;30.20;27.23;;;3.00;99.90;;;;;;4794638;29;20505;-74
2021/05/03 05:07:57;;;;;;;29.80;27.00;;;3.10;99.90;;;;;;4794667;29;20894;-77
2021/05/03 05:10:23;;;;;;;32.17;28.13;;;3.20;99.90;;;;;;4793285;29;20529;-78
2021/05/03 05:12:50;;;;;;;30.53;27.67;;;3.20;99.90;;;;;;4796798;29;20470;-76
2021/05/03 05:15:17;;;;;;;30.10;27.30;;;3.30;99.90;;;;;;4790475;29;20529;-79
2021/05/03 05:17:44;;;;;;;29.40;26.60;;;3.40;99.90;;;;;;4790387;29;20512;-76
2021/05/03 05:20:12;;;;;;;31.10;28.00;;;3.40;99.90;;;;;;4796664;29;20605;-76
2021/05/03 05:22:39;;;;;;;29.00;26.17;;;3.50;99.90;;;;;;4788296;29;20487;-76
2021/05/03 05:25:07;;;;;;;28.43;25.93;;;3.60;99.90;;;;;;4795195;29;20519;-73
2021/05/03 05:27:34;;;;;;;28.27;25.57;;;3.60;99.90;;;;;;4792096;29;20592;-73
2021/05/03 05:30:02;;;;;;;29.60;25.10;;;3.70;99.90;;;;;;4794625;29;20463;-75
2021/05/03 05:32:29;;;;;;;30.87;25.90;;;3.70;99.90;;;;;;4790852;29;20481;-74
2021/05/03 05:34:56;;;;;;;27.00;24.40;;;3.70;99.90;;;;;;4796066;29;20475;-73
2021/05/03 05:37:23;;;;;;;26.30;23.57;;;3.80;99.90;;;;;;4789911;29;20506;-78
2021/05/03 05:39:49;;;;;;;26.70;23.83;;;3.80;99.90;;;;;;4794881;29;20567;-73
2021/05/03 05:42:16;;;;;;;26.60;24.10;;;3.90;99.90;;;;;;4794674;29;20490;-78
2021/05/03 05:44:43;;;;;;;28.83;25.30;;;4.00;99.90;;;;;;4795363;29;20987;-76
2021/05/03 05:47:09;;;;;;;25.33;22.93;;;4.10;99.90;;;;;;4789717;29;20495;-77
2021/05/03 05:49:36;;;;;;;27.30;24.20;;;4.10;99.90;;;;;;4795075;29;20467;-74
2021/05/03 05:52:02;;;;;;;27.53;24.83;;;4.20;99.90;;;;;;4794922;29;20467;-74
2021/05/03 05:54:30;;;;;;;25.43;22.83;;;4.30;99.90;;;;;;4793765;29;20515;-74
2021/05/03 05:56:57;;;;;;;27.90;23.97;;;4.20;99.90;;;;;;4790285;29;20500;-74
2021/05/03 05:59:24;;;;;;;25.23;23.10;;;4.30;99.90;;;;;;4793711;29;20490;-74
2021/05/03 06:01:51;;;;;;;28.30;23.77;;;4.30;99.90;;;;;;4792018;29;20552;-73
2021/05/03 06:04:17;;;;;;;31.97;26.33;;;4.30;99.90;;;;;;4798512;29;20471;-75
2021/05/03 06:06:44;;;;;;;25.93;23.40;;;4.40;99.90;;;;;;4790943;29;20475;-77
2021/05/03 06:09:10;;;;;;;26.80;22.20;;;4.60;99.90;;;;;;4793867;29;20491;-77
2021/05/03 06:11:38;;;;;;;23.53;21.23;;;4.80;99.90;;;;;;4791471;29;20576;-76
2021/05/03 06:14:04;;;;;;;24.23;21.80;;;4.80;99.90;;;;;;4786886;29;20471;-73
2021/05/03 06:16:31;;;;;;;29.00;22.00;;;4.90;99.90;;;;;;4798655;29;20494;-76
2021/05/03 06:18:58;;;;;;;21.60;19.67;;;5.10;99.90;;;;;;4796912;29;20471;-74
2021/05/03 06:21:25;;;;;;;22.97;20.77;;;5.30;99.90;;;;;;4790278;29;20482;-76
2021/05/03 06:23:51;;;;;;;21.67;19.83;;;5.60;99.90;;;;;;4789984;29;20474;-77
2021/05/03 06:26:18;;;;;;;20.87;19.07;;;5.80;99.90;;;;;;4795372;29;20614;-76
2021/05/03 06:28:45;;;;;;;23.00;20.67;;;5.80;99.90;;;;;;4800265;29;20482;-74
2021/05/03 06:31:11;;;;;;;23.67;21.27;;;5.90;99.90;;;;;;4801286;29;20532;-74
2021/05/03 06:33:38;;;;;;;22.83;20.20;;;6.00;99.90;;;;;;4797086;29;21126;-75
2021/05/03 06:36:05;;;;;;;23.90;20.13;;;6.10;99.90;;;;;;4796818;29;20475;-78
2021/05/03 06:38:32;;;;;;;21.50;19.50;;;6.30;99.90;;;;;;4795345;29;20506;-73
2021/05/03 06:40:59;;;;;;;22.77;20.43;;;6.50;99.90;;;;;;4795715;29;20874;-74
2021/05/03 06:43:25;;;;;;;24.13;20.30;;;6.80;99.90;;;;;;4796423;29;20468;-74
2021/05/03 06:45:52;;;;;;;20.53;18.97;;;7.00;99.90;;;;;;4800183;29;20558;-74
2021/05/03 06:48:19;;;;;;;26.13;20.07;;;7.10;99.90;;;;;;4794800;29;20486;-76
2021/05/03 06:50:47;;;;;;;21.70;19.80;;;7.40;99.90;;;;;;4799432;29;20480;-75
2021/05/03 06:53:13;;;;;;;20.60;18.53;;;7.40;99.90;;;;;;4798218;29;20490;-76
2021/05/03 06:55:41;;;;;;;20.20;18.30;;;7.50;99.90;;;;;;4791784;29;20841;-76
2021/05/03 06:58:07;;;;;;;20.43;18.70;;;7.50;99.90;;;;;;4794612;29;20606;-75
2021/05/03 07:00:39;;;;;;;24.10;22.00;;;7.70;99.90;;;;;;4798424;29;20921;-75
2021/05/03 07:03:06;;;;;;;20.37;18.03;;;7.80;99.90;;;;;;4796746;29;20508;-74
2021/05/03 07:05:33;;;;;;;22.87;18.77;;;7.90;99.90;;;;;;4791770;29;20468;-78
2021/05/03 07:07:59;;;;;;;23.03;18.30;;;7.90;99.90;;;;;;4796587;29;20590;-76
2021/05/03 07:10:26;;;;;;;18.10;16.50;;;7.90;99.90;;;;;;4787007;29;20488;-74
2021/05/03 07:12:52;;;;;;;18.23;16.83;;;8.00;99.90;;;;;;4790449;29;20534;-74
2021/05/03 07:15:19;;;;;;;19.50;17.67;;;7.90;99.90;;;;;;4792048;29;20503;-77
2021/05/03 07:17:46;;;;;;;19.77;18.10;;;8.10;99.90;;;;;;4792607;29;20518;-74
2021/05/03 07:20:15;;;;;;;18.57;17.07;;;8.30;99.90;;;;;;4792394;29;20473;-76
2021/05/03 07:22:42;;;;;;;18.53;16.87;;;8.50;99.90;;;;;;4791299;29;20848;-74
2021/05/03 07:25:11;;;;;;;19.57;17.93;;;8.70;99.90;;;;;;4793904;29;20502;-76
2021/05/03 07:27:38;;;;;;;19.93;18.27;;;8.70;99.90;;;;;;4791279;29;20468;-75
2021/05/03 07:30:06;;;;;;;19.30;17.50;;;8.90;99.90;;;;;;4790362;29;20515;-74
2021/05/03 07:32:32;;;;;;;19.73;17.80;;;9.20;99.90;;;;;;4798465;29;20458;-77
2021/05/03 07:34:59;;;;;;;17.93;16.50;;;9.40;99.90;;;;;;4791085;29;21033;-74
2021/05/03 07:37:26;;;;;;;18.67;17.23;;;9.60;99.90;;;;;;4781575;29;21061;-75
2021/05/03 07:39:54;;;;;;;17.40;16.20;;;9.60;99.90;;;;;;4784448;29;20475;-74
2021/05/03 07:42:20;;;;;;;17.50;16.40;;;9.70;99.90;;;;;;4784214;29;20535;-74
2021/05/03 07:44:46;;;;;;;17.10;15.73;;;9.80;99.90;;;;;;4787815;29;20730;-73
2021/05/03 07:47:13;;;;;;;18.50;17.03;;;9.90;99.90;;;;;;4789541;29;20489;-77
2021/05/03 07:49:39;;;;;;;17.67;16.57;;;10.10;99.90;;;;;;4787959;29;21316;-74
2021/05/03 07:52:06;;;;;;;18.77;17.47;;;10.30;99.90;;;;;;4792099;29;20482;-76
2021/05/03 07:54:34;;;;;;;17.90;16.70;;;10.20;99.90;;;;;;4789258;29;21933;-74
2021/05/03 07:57:01;;;;;;;19.00;17.33;;;10.20;99.90;;;;;;4788560;29;20633;-74
2021/05/03 07:59:28;;;;;;;18.77;17.37;;;10.40;99.90;;;;;;4787724;29;20979;-74
2021/05/03 08:01:54;;;;;;;17.50;16.30;;;10.70;99.90;;;;;;4789322;29;20476;-77
2021/05/03 08:04:21;;;;;;;19.37;17.77;;;10.80;99.90;;;;;;4786755;29;21040;-74
2021/05/03 08:06:51;;;;;;;18.20;16.90;;;11.00;99.90;;;;;;4791537;29;20545;-73
2021/05/03 08:09:18;;;;;;;18.30;17.00;;;11.20;99.90;;;;;;4788398;29;20512;-75
2021/05/03 08:11:45;;;;;;;19.13;17.33;;;11.30;99.90;;;;;;4788633;29;20554;-75
2021/05/03 08:14:15;;;;;;;19.30;17.40;;;11.40;99.90;;;;;;4789737;29;20547;-74
2021/05/03 08:16:42;;;;;;;18.83;17.53;;;11.40;99.90;;;;;;4785838;29;20546;-75
2021/05/03 08:19:08;;;;;;;18.70;17.13;;;11.40;99.90;;;;;;4790079;29;20478;-74
2021/05/03 08:21:35;;;;;;;19.67;18.17;;;11.60;99.90;;;;;;4787387;29;20503;-75
2021/05/03 08:24:01;;;;;;;19.57;18.27;;;12.00;99.90;;;;;;4790043;29;20490;-74
2021/05/03 08:26:28;;;;;;;19.10;17.67;;;12.40;99.90;;;;;;4790537;29;20479;-73
2021/05/03 08:28:55;;;;;;;18.40;17.30;;;12.50;99.90;;;;;;4789293;29;20491;-74
2021/05/03 08:31:21;;;;;;;20.00;18.40;;;12.30;99.90;;;;;;4794805;29;20468;-74
2021/05/03 08:33:48;;;;;;;19.33;17.83;;;12.50;99.70;;;;;;4788973;29;20578;-74
2021/05/03 08:36:15;;;;;;;19.47;17.83;;;13.00;99.90;;;;;;4788623;29;20479;-74
2021/05/03 08:38:41;;;;;;;18.00;16.70;;;13.00;98.60;;;;;;4786741;29;20508;-74
2021/05/03 08:41:08;;;;;;;19.90;18.07;;;13.20;98.40;;;;;;4790987;29;20523;-74
2021/05/03 08:43:39;;;;;;;19.67;18.27;;;13.50;98.50;;;;;;4777033;29;20472;-74
2021/05/03 08:46:09;;;;;;;19.57;17.97;;;13.40;97.60;;;;;;4790886;29;20476;-75
2021/05/03 08:48:39;;;;;;;19.70;18.30;;;13.60;98.30;;;;;;4792570;29;20477;-75
2021/05/03 08:51:11;;;;;;;19.77;18.47;;;13.50;96.20;;;;;;4791347;29;20469;-74
2021/05/03 08:53:41;;;;;;;19.43;18.03;;;13.30;96.50;;;;;;4794752;29;20967;-74
2021/05/03 08:56:08;;;;;;;19.67;18.27;;;13.30;96.50;;;;;;4787963;29;21251;-74
2021/05/03 08:58:37;;;;;;;19.53;17.93;;;13.30;96.10;;;;;;4790347;29;20510;-74
2021/05/03 09:01:04;;;;;;;18.87;17.67;;;13.10;95.10;;;;;;4788917;29;20483;-74
2021/05/03 09:03:33;;;;;;;17.60;16.50;;;13.00;96.30;;;;;;4791732;29;20463;-74
2021/05/03 09:06:03;;;;;;;19.90;18.60;;;13.20;96.70;;;;;;4804453;29;20881;-74
2021/05/03 09:08:31;;;;;;;21.73;18.07;;;13.30;95.70;;;;;;4796460;29;20860;-75
2021/05/03 09:10:58;;;;;;;20.33;18.93;;;13.30;94.70;;;;;;4789553;29;20476;-74
2021/05/03 09:13:30;;;;;;;20.80;19.30;;;13.60;95.10;;;;;;4794854;29;20471;-75
2021/05/03 09:16:18;;;;;;;19.60;18.20;;;13.50;95.10;;;;;;4795372;29;20500;-74
2021/05/03 09:18:46;;;;;;;19.70;18.30;;;13.90;94.90;;;;;;4796377;29;21042;-74
2021/05/03 09:21:21;;;;;;;19.47;17.73;;;14.30;94.70;;;;;;4795508;29;21261;-74
2021/05/03 09:24:07;;;;;;;18.50;17.23;;;14.90;95.10;;;;;;4788971;29;20489;-74
2021/05/03 09:26:40;;;;;;;18.73;17.43;;;15.10;92.60;;;;;;4790025;29;20471;-76
2021/05/03 09:29:34;;;;;;;17.63;16.53;;;14.90;92.60;;;;;;4789300;29;20472;-74
2021/05/03 09:32:06;;;;;;;19.53;18.27;;;14.70;91.90;;;;;;4791397;29;20472;-74
2021/05/03 09:34:36;;;;;;;19.60;18.23;;;15.40;91.70;;;;;;4793139;29;20484;-74
2021/05/03 09:37:20;;;;;;;19.07;17.60;;;15.50;90.90;;;;;;4793462;29;20499;-75
2021/05/03 09:39:52;;;;;;;19.07;17.77;;;15.60;90.80;;;;;;4793864;29;20475;-74
2021/05/03 09:42:20;;;;;;;18.83;17.63;;;15.20;91.20;;;;;;4795733;29;20502;-71
2021/05/03 09:45:03;;;;;;;19.60;18.20;;;16.30;91.40;;;;;;4787991;29;20881;-74
2021/05/03 09:47:30;;;;;;;20.37;18.50;;;16.40;90.00;;;;;;4792979;29;20475;-74
2021/05/03 09:49:59;;;;;;;19.60;18.40;;;15.70;86.00;;;;;;4792032;29;20482;-75
2021/05/03 09:52:27;;;;;;;21.30;19.70;;;15.50;87.40;;;;;;4793865;29;20529;-74
2021/05/03 09:54:54;;;;;;;19.80;18.00;;;14.80;90.50;;;;;;4794822;29;20588;-74
2021/05/03 09:57:20;;;;;;;19.10;17.70;;;15.10;90.00;;;;;;4798328;29;20514;-74
2021/05/03 09:59:48;;;;;;;18.40;17.20;;;15.40;90.20;;;;;;4795299;29;20495;-74
2021/05/03 10:02:18;;;;;;;20.37;18.97;;;15.40;88.00;;;;;;4791336;29;20886;-74
2021/05/03 10:04:54;;;;;;;18.70;17.30;;;15.90;88.40;;;;;;4793873;29;21038;-74
2021/05/03 10:07:24;;;;;;;20.30;18.90;;;15.60;90.90;;;;;;4793421;29;20471;-75
2021/05/03 10:09:54;;;;;;;19.17;17.63;;;15.80;90.10;;;;;;4796842;29;21003;-73
2021/05/03 10:12:21;;;;;;;20.27;18.90;;;16.00;87.90;;;;;;4798036;29;20498;-74
2021/05/03 10:14:48;;;;;;;20.43;19.03;;;16.00;88.00;;;;;;4793195;29;21044;-73
2021/05/03 10:17:17;;;;;;;20.00;18.53;;;15.40;88.10;;;;;;4794957;29;20499;-74
2021/05/03 10:19:45;;;;;;;19.53;18.03;;;15.00;87.80;;;;;;4797639;29;20477;-74
2021/05/03 10:22:17;;;;;;;20.97;19.07;;;15.60;88.70;;;;;;4796040;29;20913;-74
2021/05/03 10:24:47;;;;;;;20.90;19.53;;;16.20;84.90;;;;;;4792302;29;20471;-74
2021/05/03 10:27:15;;;;;;;19.80;18.20;;;16.40;82.00;;;;;;4796176;29;20929;-74
2021/05/03 10:29:42;;;;;;;19.50;18.30;;;16.30;83.00;;;;;;4794635;29;21078;-74
2021/05/03 10:32:10;;;;;;;20.20;18.90;;;15.60;82.80;;;;;;4791584;29;20930;-75
2021/05/03 10:34:50;;;;;;;19.67;18.03;;;15.20;82.80;;;;;;4796705;29;20507;-74
2021/05/03 10:37:52;;;;;;;20.10;18.30;;;15.40;81.80;;;;;;4796741;29;20501;-74
2021/05/03 10:40:43;;;;;;;19.40;18.10;;;15.10;82.10;;;;;;4798373;29;20475;-74
2021/05/03 10:43:15;;;;;;;20.97;19.60;;;15.30;82.20;;;;;;4789009;29;20484;-74
2021/05/03 10:45:49;;;;;;;19.50;18.20;;;15.00;83.90;;;;;;4798847;29;20478;-75
2021/05/03 10:48:30;;;;;;;18.40;17.10;;;15.60;86.90;;;;;;4796036;29;20483;-73
2021/05/03 10:50:58;;;;;;;20.23;18.67;;;16.50;83.30;;;;;;4794321;29;20494;-72
2021/05/03 10:53:27;;;;;;;19.93;18.57;;;16.30;81.40;;;;;;4791680;29;20915;-72
2021/05/03 10:55:56;;;;;;;20.80;19.27;;;15.40;84.50;;;;;;4792969;29;20514;-74
2021/05/03 10:58:23;;;;;;;21.07;19.57;;;15.60;82.60;;;;;;4796650;29;20565;-74
2021/05/03 11:01:01;;;;;;;21.67;20.27;;;15.60;82.90;;;;;;4798830;29;20480;-74
2021/05/03 11:04:06;;;;;;;20.70;19.00;;;15.60;82.60;;;;;;4792942;29;20463;-74
2021/05/03 11:07:08;;;;;;;20.50;19.00;;;15.90;81.30;;;;;;4795340;29;20504;-74
2021/05/03 11:09:38;;;;;;;20.60;19.20;;;16.20;79.60;;;;;;4796942;29;20553;-74
2021/05/03 11:12:29;;;;;;;21.33;19.50;;;16.40;76.20;;;;;;4798826;29;20478;-72
2021/05/03 11:15:27;;;;;;;20.60;19.20;;;16.00;79.00;;;;;;4787689;29;20994;-72
2021/05/03 11:18:21;;;;;;;19.90;18.30;;;16.00;77.30;;;;;;4767147;29;20505;-74
2021/05/03 11:21:15;;;;;;;24.00;20.83;;;15.20;78.30;;;;;;4794716;29;20984;-74
2021/05/03 11:23:42;;;;;;;23.47;20.80;;;14.80;81.10;;;;;;4776513;29;20467;-74
2021/05/03 11:26:27;;;;;;;20.13;18.73;;;15.30;84.10;;;;;;4796105;29;21060;-74
2021/05/03 11:29:04;;;;;;;20.23;17.83;;;15.60;78.10;;;;;;4795283;29;21242;-74
2021/05/03 11:31:32;;;;;;;20.63;19.10;;;15.60;77.80;;;;;;4792325;29;20464;-74
2021/05/03 11:34:03;;;;;;;22.77;20.87;;;15.10;80.20;;;;;;4795849;29;21237;-74
2021/05/03 11:36:34;;;;;;;26.73;19.87;;;14.90;79.60;;;;;;4791253;29;20475;-74
2021/05/03 11:39:07;;;;;;;21.27;19.53;;;14.70;82.00;;;;;;4793673;29;20593;-74
2021/05/03 11:42:00;;;;;;;19.40;17.80;;;15.60;82.60;;;;;;4794132;29;20615;-72
2021/05/03 11:44:48;;;;;;;20.90;19.43;;;16.70;80.40;;;;;;4779866;29;20840;-72
2021/05/03 11:47:15;;;;;;;20.50;18.90;;;17.00;76.00;;;;;;4785400;29;20479;-72
2021/05/03 11:49:45;;;;;;;21.23;19.50;;;16.10;73.40;;;;;;4783428;29;20804;-72
2021/05/03 11:52:12;;;;;;;22.50;20.77;;;15.90;78.60;;;;;;4790791;29;20501;-72
2021/05/03 11:54:42;;;;;;;19.77;18.37;;;16.60;80.00;;;;;;4788120;29;20545;-72
2021/05/03 11:57:11;;;;;;;20.27;18.73;;;17.10;77.50;;;;;;4791134;29;20994;-72
2021/05/03 11:59:38;;;;;;;19.80;18.50;;;17.40;76.10;;;;;;4790494;29;20570;-71
2021/05/03 12:02:07;;;;;;;18.87;17.57;;;18.50;77.30;;;;;;4788311;29;20482;-72
2021/05/03 12:04:39;;;;;;;19.27;17.87;;;18.40;68.70;;;;;;4788431;29;21176;-71
2021/05/03 12:07:17;;;;;;;18.40;17.10;;;17.40;68.50;;;;;;4792711;29;20481;-71
2021/05/03 12:09:49;;;;;;;20.23;18.93;;;16.60;70.80;;;;;;4790895;29;21006;-71
2021/05/03 12:12:15;;;;;;;17.93;16.93;;;16.10;71.50;;;;;;4787241;29;21003;-71
2021/05/03 12:14:47;;;;;;;19.00;17.77;;;15.70;72.40;;;;;;4788091;29;20536;-73
2021/05/03 12:17:20;;;;;;;19.90;18.50;;;15.90;70.90;;;;;;4790400;29;20496;-72
2021/05/03 12:19:48;;;;;;;20.70;19.27;;;15.90;73.20;;;;;;4785083;29;20468;-74
2021/05/03 12:22:16;;;;;;;20.17;18.80;;;16.10;73.70;;;;;;4789225;29;20506;-73
2021/05/03 12:24:44;;;;;;;20.60;19.37;;;16.50;72.60;;;;;;4786315;29;20522;-72
2021/05/03 12:27:10;;;;;;;21.00;19.17;;;17.10;74.70;;;;;;4792178;29;20507;-72
2021/05/03 12:29:38;;;;;;;20.40;18.93;;;16.90;72.10;;;;;;4780494;29;20587;-71
2021/05/03 12:32:09;;;;;;;19.20;18.00;;;16.80;71.30;;;;;;4786212;29;20523;-72
2021/05/03 12:34:41;;;;;;;17.63;16.43;;;17.70;69.70;;;;;;4781914;29;20482;-72
2021/05/03 12:37:16;;;;;;;17.73;16.73;;;17.60;71.50;;;;;;4788580;29;20480;-72
2021/05/03 12:40:03;;;;;;;18.00;16.90;;;18.00;69.70;;;;;;4791632;29;20990;-72
2021/05/03 12:42:35;;;;;;;20.30;17.23;;;17.90;67.40;;;;;;4786352;29;21032;-71
2021/05/03 12:45:13;;;;;;;17.87;16.10;;;17.70;64.30;;;;;;4790825;29;20660;-72
2021/05/03 12:47:54;;;;;;;17.00;15.90;;;17.40;64.40;;;;;;4788591;29;20675;-72
2021/05/03 12:50:28;;;;;;;16.47;15.40;;;17.50;65.50;;;;;;4788568;29;20483;-72